Aeroporto :
LOGIN :

Iscrizione | Disclaimer

   EN    FR    IT 

 










Sommario :    VFR   VFR Marginale   IFR   IFR Intensivo   IFR Molto Intensivo
Visibilità : 
Base nubi : 
>= 8 km
>= 3000ft
5 / 8 km
1000 / 3000 ft
1500m / 5 km
500 / 1000 ft
800 / 1500m
200 / 500 ft
< 800m
< 200 ft
Simboli :   Temporali  Nebbia  Neve Forte  Precipitazioni Forti  Vento > 20 kt
SIGMETs :   Varie  Temporali  Ghiacco  Turbolenza  Onda orograficha  Ceneri Vulcaniche






- Altitudine del aeroporto : 97 ft
- Codice IATA : EBJ


EKEB - Esbjerg

ULTIMO METAR :
  • 130220Z AUTO 25005KT 9999 ///////// 11/08 Q1024

METARs OBSOLETI :
  • 130150Z AUTO 26006KT 9999 BKN025/// 12/09 Q1024
  • 130120Z AUTO 26006KT 9999 BKN025/// 12/09 Q1024
  • 130050Z AUTO 25005KT 9999 BKN023/// 11/09 Q1025
  • 130020Z AUTO 25004KT 9999 SCT023/// 10/09 Q1025
  • 122350Z AUTO 25005KT 9999 FEW022/// 11/09 Q1025

TAF TAF EKEB
Valido dal 13 a 03 ore il 13 a 12 ore UTC


130221Z 1303/1312 23010KT 9999 BKN020



MetMap, La meteo Aeronautica in un colpo d'occhio ! - Copyright ORBIFLY Dicembre 2007 - Disclaimer

ORBIFLY MET'MAP TEAM :

Programmazione e sviluppo : Alexandra Zaïnal
Concezione : Baudouin d'Aumeries
Aiuto per la programmazione : Marc-Olivier Méhu
Supporto tecnico e logistico : Manuel Goepfert
Aiuto per la traduzione : Arnaldo La Scala

Contatto : metmap@orbifly.com




FONTI E CREDITI :

   NOAA